createdAt,value
2022-09-03T00:00:07.008Z,20.40
2022-09-03T00:02:49.074Z,20.40
2022-09-03T00:05:47.739Z,20.30
2022-09-03T00:08:43.626Z,20.30
2022-09-03T00:11:16.591Z,20.30
2022-09-03T00:13:50.135Z,20.30
2022-09-03T00:16:21.977Z,20.30
2022-09-03T00:18:56.125Z,20.30
2022-09-03T00:21:28.615Z,20.30
2022-09-03T00:23:56.376Z,20.30
2022-09-03T00:26:30.798Z,20.30
2022-09-03T00:29:03.656Z,20.30
2022-09-03T00:31:39.042Z,20.30
2022-09-03T00:34:37.077Z,20.30
2022-09-03T00:37:03.960Z,20.30
2022-09-03T00:39:30.930Z,20.30
2022-09-03T00:42:18.314Z,20.30
2022-09-03T00:45:06.861Z,20.30
2022-09-03T00:47:53.836Z,20.30
2022-09-03T00:50:38.663Z,20.30
2022-09-03T00:53:31.845Z,20.30
2022-09-03T00:56:28.765Z,20.20
2022-09-03T00:59:27.884Z,20.20
2022-09-03T01:02:00.490Z,20.10
2022-09-03T01:05:07.971Z,20.00
2022-09-03T01:08:08.287Z,20.00
2022-09-03T01:10:53.355Z,20.00
2022-09-03T01:13:37.008Z,20.00
2022-09-03T01:16:03.670Z,20.00
2022-09-03T01:18:44.513Z,20.00
2022-09-03T01:21:34.746Z,20.00
2022-09-03T01:24:23.229Z,20.00
2022-09-03T01:27:05.294Z,20.00
2022-09-03T01:29:46.917Z,20.00
2022-09-03T01:32:34.481Z,20.00
2022-09-03T01:35:12.423Z,20.00
2022-09-03T01:38:15.653Z,20.00
2022-09-03T01:41:54.969Z,20.00
2022-09-03T01:44:48.546Z,20.00
2022-09-03T01:47:40.374Z,20.00
2022-09-03T01:50:20.281Z,20.00
2022-09-03T01:52:56.059Z,19.90
2022-09-03T01:55:47.256Z,19.90
2022-09-03T01:58:35.136Z,19.90
2022-09-03T02:01:10.238Z,19.90
2022-09-03T02:03:41.100Z,19.90
2022-09-03T02:06:10.580Z,19.80
2022-09-03T02:08:37.677Z,19.80
2022-09-03T02:11:08.160Z,19.80
2022-09-03T02:14:00.481Z,19.80
2022-09-03T02:16:31.700Z,19.80
2022-09-03T02:19:06.087Z,19.80
2022-09-03T02:21:36.906Z,19.80
2022-09-03T02:24:05.081Z,19.70
2022-09-03T02:26:31.799Z,19.70
2022-09-03T02:28:59.042Z,19.70
2022-09-03T02:31:25.685Z,19.70
2022-09-03T02:33:52.418Z,19.70
2022-09-03T02:36:27.089Z,19.60
2022-09-03T02:38:54.192Z,19.60
2022-09-03T02:41:20.821Z,19.60
2022-09-03T02:43:54.947Z,19.60
2022-09-03T02:46:26.948Z,19.60
2022-09-03T02:48:54.542Z,19.60
2022-09-03T02:51:21.460Z,19.50
2022-09-03T02:53:48.259Z,19.50
2022-09-03T02:56:16.829Z,19.50
2022-09-03T02:58:43.436Z,19.50
2022-09-03T03:01:10.116Z,19.40
2022-09-03T03:03:36.847Z,19.40
2022-09-03T03:06:06.937Z,19.30
2022-09-03T03:08:35.068Z,19.30
2022-09-03T03:11:01.998Z,19.30
2022-09-03T03:13:30.283Z,19.20
2022-09-03T03:16:06.291Z,19.20
2022-09-03T03:18:34.241Z,19.20
2022-09-03T03:21:09.136Z,19.10
2022-09-03T03:23:36.836Z,19.10
2022-09-03T03:26:05.147Z,19.10
2022-09-03T03:28:35.093Z,19.10
2022-09-03T03:31:11.502Z,19.00
2022-09-03T03:33:39.369Z,19.00
2022-09-03T03:36:11.945Z,19.00
2022-09-03T03:38:40.651Z,19.00
2022-09-03T03:41:09.237Z,18.90
2022-09-03T03:43:35.892Z,18.90
2022-09-03T03:46:02.632Z,18.90
2022-09-03T03:48:29.392Z,18.90
2022-09-03T03:51:00.256Z,18.90
2022-09-03T03:53:26.881Z,18.90
2022-09-03T03:56:01.662Z,18.80
2022-09-03T03:58:29.491Z,18.80
2022-09-03T04:00:56.184Z,18.80
2022-09-03T04:03:22.857Z,18.80
2022-09-03T04:06:00.645Z,18.80
2022-09-03T04:08:28.305Z,18.80
2022-09-03T04:10:59.194Z,18.80
2022-09-03T04:13:30.129Z,18.80
2022-09-03T04:16:09.900Z,18.80
2022-09-03T04:18:38.093Z,18.80
2022-09-03T04:21:07.578Z,18.80
2022-09-03T04:23:36.116Z,18.80
2022-09-03T04:26:03.491Z,18.80
2022-09-03T04:28:32.692Z,18.80
2022-09-03T04:31:04.460Z,18.80
2022-09-03T04:33:33.021Z,18.90
2022-09-03T04:36:06.876Z,18.90
2022-09-03T04:38:35.117Z,18.90
2022-09-03T04:41:02.209Z,18.80
2022-09-03T04:43:29.479Z,18.80
2022-09-03T04:45:58.368Z,18.80
2022-09-03T04:48:25.643Z,18.80
2022-09-03T04:50:52.428Z,18.80
2022-09-03T04:53:19.125Z,18.80
2022-09-03T04:55:45.777Z,18.80
2022-09-03T04:58:12.453Z,18.80
2022-09-03T05:00:39.730Z,18.80
2022-09-03T05:03:06.449Z,18.80
2022-09-03T05:05:36.073Z,18.80
2022-09-03T05:08:04.001Z,18.80
2022-09-03T05:10:31.368Z,18.80
2022-09-03T05:13:03.803Z,18.80
2022-09-03T05:15:31.685Z,18.80
2022-09-03T05:17:59.833Z,18.80
2022-09-03T05:20:26.567Z,18.80
2022-09-03T05:22:53.277Z,18.80
2022-09-03T05:25:20.154Z,18.80
2022-09-03T05:27:46.897Z,18.80
2022-09-03T05:30:14.275Z,18.80
2022-09-03T05:32:41.284Z,18.80
2022-09-03T05:35:09.678Z,18.70
2022-09-03T05:37:37.418Z,18.80
2022-09-03T05:40:04.806Z,18.80
2022-09-03T05:42:32.282Z,18.80
2022-09-03T05:44:59.852Z,18.80
2022-09-03T05:47:26.513Z,18.70
2022-09-03T05:49:53.144Z,18.80
2022-09-03T05:52:21.641Z,18.80
2022-09-03T05:54:48.275Z,18.80
2022-09-03T05:57:15.028Z,18.80
2022-09-03T05:59:41.650Z,18.90
2022-09-03T06:02:08.286Z,18.90
2022-09-03T06:04:38.692Z,18.90
2022-09-03T06:07:05.296Z,18.90
2022-09-03T06:09:31.908Z,18.90
2022-09-03T06:11:58.599Z,18.90
2022-09-03T06:14:30.403Z,18.90
2022-09-03T06:16:57.180Z,18.90
2022-09-03T06:19:23.884Z,19.00
2022-09-03T06:21:50.571Z,19.00
2022-09-03T06:24:26.367Z,19.00
2022-09-03T06:26:55.256Z,19.00
2022-09-03T06:29:22.393Z,19.00
2022-09-03T06:31:50.795Z,19.00
2022-09-03T06:34:18.497Z,19.10
2022-09-03T06:36:46.119Z,19.10
2022-09-03T06:39:12.780Z,19.10
2022-09-03T06:41:40.052Z,19.10
2022-09-03T06:44:11.559Z,19.10
2022-09-03T06:46:42.203Z,19.10
2022-09-03T06:49:09.561Z,19.10
2022-09-03T06:51:37.835Z,19.20
2022-09-03T06:54:09.418Z,19.20
2022-09-03T06:56:40.342Z,19.20
2022-09-03T06:59:12.855Z,19.30
2022-09-03T07:01:44.009Z,19.30
2022-09-03T07:04:12.841Z,19.20
2022-09-03T07:06:42.016Z,19.20
2022-09-03T07:09:10.489Z,19.10
2022-09-03T07:11:37.321Z,19.20
2022-09-03T07:14:05.057Z,19.20
2022-09-03T07:16:42.560Z,19.20
2022-09-03T07:19:10.190Z,19.20
2022-09-03T07:21:37.439Z,19.30
2022-09-03T07:24:05.548Z,19.20
2022-09-03T07:26:38.122Z,19.20
2022-09-03T07:29:07.647Z,19.20
2022-09-03T07:31:38.022Z,19.10
2022-09-03T07:34:10.058Z,19.10
2022-09-03T07:36:41.560Z,19.10
2022-09-03T07:39:09.279Z,19.20
2022-09-03T07:41:35.901Z,19.10
2022-09-03T07:44:05.645Z,19.20
2022-09-03T07:46:35.080Z,19.20
2022-09-03T07:49:02.435Z,19.20
2022-09-03T07:51:31.868Z,19.20
2022-09-03T07:54:02.020Z,19.30
2022-09-03T07:56:32.380Z,19.30
2022-09-03T07:58:59.326Z,19.40
2022-09-03T08:01:28.642Z,19.40
2022-09-03T08:03:55.957Z,19.40
2022-09-03T08:06:24.414Z,19.50
2022-09-03T08:09:06.264Z,19.60
2022-09-03T08:11:43.176Z,19.70
2022-09-03T08:14:12.384Z,19.70
2022-09-03T08:16:44.683Z,19.80
2022-09-03T08:19:11.936Z,19.80
2022-09-03T08:21:41.764Z,19.80
2022-09-03T08:24:09.375Z,19.80
2022-09-03T08:26:39.263Z,19.80
2022-09-03T08:29:06.582Z,19.80
2022-09-03T08:31:34.463Z,19.70
2022-09-03T08:34:06.557Z,19.70
2022-09-03T08:36:36.470Z,19.70
2022-09-03T08:39:09.349Z,19.80
2022-09-03T08:41:51.519Z,19.80
2022-09-03T08:44:51.263Z,19.80
2022-09-03T08:47:27.959Z,19.90
2022-09-03T08:50:25.993Z,19.90
2022-09-03T08:53:01.960Z,19.90
2022-09-03T08:55:36.273Z,20.00
2022-09-03T08:58:07.143Z,19.90
2022-09-03T09:01:03.149Z,19.90
2022-09-03T09:03:56.978Z,19.90
2022-09-03T09:06:50.991Z,19.90
2022-09-03T09:09:24.463Z,19.90
2022-09-03T09:12:04.551Z,19.90
2022-09-03T09:14:49.738Z,19.90
2022-09-03T09:17:31.587Z,20.00
2022-09-03T09:20:25.319Z,20.00
2022-09-03T09:23:00.871Z,20.10
2022-09-03T09:25:27.784Z,20.10
2022-09-03T09:28:01.520Z,20.20
2022-09-03T09:30:30.249Z,20.20
2022-09-03T09:32:57.065Z,20.20
2022-09-03T09:35:24.479Z,20.10
2022-09-03T09:37:53.687Z,20.20
2022-09-03T09:40:49.573Z,20.20
2022-09-03T09:43:20.541Z,20.20
2022-09-03T09:45:49.795Z,20.20
2022-09-03T09:48:33.918Z,20.30
2022-09-03T09:51:09.258Z,20.30
2022-09-03T09:53:36.245Z,20.30
2022-09-03T09:56:03.543Z,20.40
2022-09-03T09:58:33.088Z,20.50
2022-09-03T10:01:13.484Z,20.50
2022-09-03T10:03:57.539Z,20.50
2022-09-03T10:06:46.214Z,20.50
2022-09-03T10:09:18.766Z,20.50
2022-09-03T10:11:52.239Z,20.50
2022-09-03T10:14:37.196Z,20.60
2022-09-03T10:17:37.402Z,20.60
2022-09-03T10:20:32.099Z,20.70
2022-09-03T10:23:04.895Z,20.80
2022-09-03T10:25:56.219Z,20.90
2022-09-03T10:28:26.983Z,20.90
2022-09-03T10:31:22.173Z,21.00
2022-09-03T10:33:55.468Z,21.00
2022-09-03T10:36:31.400Z,21.00
2022-09-03T10:39:27.138Z,21.10
2022-09-03T10:42:12.922Z,21.10
2022-09-03T10:45:06.963Z,21.20
2022-09-03T10:48:11.018Z,21.20
2022-09-03T10:50:51.253Z,21.20
2022-09-03T10:53:39.376Z,21.30
2022-09-03T10:56:33.075Z,21.30
2022-09-03T10:59:02.868Z,21.40
2022-09-03T11:01:51.354Z,21.50
2022-09-03T11:04:38.330Z,21.50
2022-09-03T11:07:09.151Z,21.60
2022-09-03T11:09:40.053Z,21.60
2022-09-03T11:12:27.339Z,21.70
2022-09-03T11:15:05.271Z,21.70
2022-09-03T11:17:56.890Z,21.70
2022-09-03T11:20:26.210Z,21.80
2022-09-03T11:23:05.685Z,21.90
2022-09-03T11:25:41.134Z,21.90
2022-09-03T11:28:23.382Z,21.90
2022-09-03T11:30:59.117Z,22.00
2022-09-03T11:33:28.279Z,22.00
2022-09-03T11:36:00.994Z,22.00
2022-09-03T11:38:32.288Z,22.00
2022-09-03T11:41:14.246Z,22.10
2022-09-03T11:43:42.668Z,22.10
2022-09-03T11:46:24.000Z,22.10
2022-09-03T11:48:52.895Z,22.20
2022-09-03T11:51:32.161Z,22.20
2022-09-03T11:54:07.887Z,22.30
2022-09-03T11:56:36.427Z,22.30
2022-09-03T11:59:18.102Z,22.30
2022-09-03T12:01:54.887Z,22.20
2022-09-03T12:04:45.373Z,22.20
2022-09-03T12:07:39.432Z,22.20
2022-09-03T12:10:26.611Z,22.30
2022-09-03T12:13:05.224Z,22.40
2022-09-03T12:15:40.047Z,22.30
2022-09-03T12:18:20.470Z,22.40
2022-09-03T12:20:53.315Z,22.40
2022-09-03T12:23:49.079Z,22.40
2022-09-03T12:26:23.815Z,22.40
2022-09-03T12:28:54.462Z,22.40
2022-09-03T12:31:25.347Z,22.40
2022-09-03T12:33:59.007Z,22.40
2022-09-03T12:36:36.997Z,22.40
2022-09-03T12:39:15.010Z,22.50
2022-09-03T12:42:03.685Z,22.70
2022-09-03T12:44:42.506Z,22.70
2022-09-03T12:50:08.603Z,22.70
2022-09-03T12:52:53.806Z,22.80
2022-09-03T12:55:29.513Z,22.90
2022-09-03T12:58:05.257Z,22.90
2022-09-03T13:00:37.101Z,23.00
2022-09-03T13:03:12.968Z,23.00
2022-09-03T13:05:53.054Z,23.00
2022-09-03T13:08:26.236Z,23.00
2022-09-03T13:10:59.709Z,23.00
2022-09-03T13:13:30.008Z,22.90
2022-09-03T13:16:12.637Z,22.90
2022-09-03T13:19:01.440Z,22.90
2022-09-03T13:21:28.070Z,22.90
2022-09-03T13:24:15.917Z,22.90
2022-09-03T13:27:23.412Z,22.80
2022-09-03T13:29:55.895Z,22.80
2022-09-03T13:32:40.276Z,22.80
2022-09-03T13:35:19.856Z,22.80
2022-09-03T13:37:55.743Z,22.70
2022-09-03T13:40:37.866Z,22.70
2022-09-03T13:43:54.796Z,22.70
2022-09-03T13:46:31.910Z,22.70
2022-09-03T13:49:55.059Z,22.70
2022-09-03T13:52:46.749Z,22.70
2022-09-03T13:55:33.536Z,22.70
2022-09-03T13:58:03.487Z,22.80
2022-09-03T14:00:42.215Z,22.80
2022-09-03T14:03:33.501Z,22.80
2022-09-03T14:06:05.665Z,22.90
2022-09-03T14:08:58.953Z,23.00
2022-09-03T14:11:35.370Z,23.00
2022-09-03T14:14:38.930Z,23.00
2022-09-03T14:17:23.431Z,23.00
2022-09-03T14:20:04.349Z,23.00
2022-09-03T14:23:08.015Z,22.90
2022-09-03T14:25:34.767Z,22.90
2022-09-03T14:28:30.453Z,22.90
2022-09-03T14:31:26.950Z,22.80
2022-09-03T14:34:11.064Z,22.80
2022-09-03T14:36:42.557Z,22.80
2022-09-03T14:39:26.825Z,22.80
2022-09-03T14:42:07.043Z,22.70
2022-09-03T14:45:05.299Z,22.70
2022-09-03T14:47:59.069Z,22.60
2022-09-03T14:50:58.790Z,22.60
2022-09-03T14:53:31.790Z,22.50
2022-09-03T14:56:03.487Z,22.50
2022-09-03T14:58:58.530Z,22.50
2022-09-03T15:01:39.451Z,22.50
2022-09-03T15:04:25.381Z,22.60
2022-09-03T15:06:52.064Z,22.50
2022-09-03T15:09:40.276Z,22.50
2022-09-03T15:12:13.265Z,22.50
2022-09-03T15:14:56.905Z,22.40
2022-09-03T15:17:44.982Z,22.40
2022-09-03T15:20:23.719Z,22.40
2022-09-03T15:23:03.270Z,22.30
2022-09-03T15:25:41.653Z,22.30
2022-09-03T15:28:34.372Z,22.30
2022-09-03T15:31:21.964Z,22.20
2022-09-03T15:34:23.913Z,22.20
2022-09-03T15:36:54.083Z,22.20
2022-09-03T15:39:28.409Z,22.20
2022-09-03T15:42:14.795Z,22.20
2022-09-03T15:44:45.873Z,22.20
2022-09-03T15:47:51.476Z,22.20
2022-09-03T15:50:46.381Z,22.20
2022-09-03T15:53:34.159Z,22.20
2022-09-03T15:56:31.633Z,22.20
2022-09-03T15:59:03.852Z,22.20
2022-09-03T16:01:36.731Z,22.20
2022-09-03T16:04:15.805Z,22.20
2022-09-03T16:06:54.341Z,21.90
2022-09-03T16:09:45.543Z,21.20
2022-09-03T16:12:36.689Z,20.30
2022-09-03T16:15:23.299Z,19.20
2022-09-03T16:18:20.358Z,18.50
2022-09-03T16:20:57.080Z,18.20
2022-09-03T16:23:52.200Z,18.00
2022-09-03T16:26:21.687Z,17.70
2022-09-03T16:28:58.357Z,17.60
2022-09-03T16:32:03.853Z,17.60
2022-09-03T16:34:39.648Z,17.70
2022-09-03T16:37:24.737Z,17.80
2022-09-03T16:39:51.400Z,17.80
2022-09-03T16:42:38.992Z,17.80
2022-09-03T16:45:44.700Z,17.80
2022-09-03T16:48:32.823Z,17.90
2022-09-03T16:51:37.361Z,18.20
2022-09-03T16:54:28.333Z,18.40
2022-09-03T16:57:02.264Z,18.70
2022-09-03T16:59:37.755Z,18.90
2022-09-03T17:02:42.339Z,19.10
2022-09-03T17:05:28.135Z,19.40
2022-09-03T17:07:54.773Z,19.60
2022-09-03T17:10:49.632Z,19.70
2022-09-03T17:13:30.509Z,19.80
2022-09-03T17:16:25.011Z,19.90
2022-09-03T17:19:11.891Z,20.00
2022-09-03T17:21:46.202Z,20.00
2022-09-03T17:24:27.824Z,20.10
2022-09-03T17:27:15.587Z,20.20
2022-09-03T17:30:10.967Z,20.20
2022-09-03T17:32:57.254Z,20.30
2022-09-03T17:35:51.298Z,20.30
2022-09-03T17:38:45.675Z,20.40
2022-09-03T17:41:15.462Z,20.50
2022-09-03T17:44:05.445Z,20.40
2022-09-03T17:46:47.677Z,20.50
2022-09-03T17:49:53.906Z,20.50
2022-09-03T17:52:43.582Z,20.50
2022-09-03T17:55:22.809Z,20.50
2022-09-03T17:58:16.101Z,20.50
2022-09-03T18:01:07.044Z,20.50
2022-09-03T18:03:57.129Z,20.50
2022-09-03T18:06:27.348Z,20.60
2022-09-03T18:09:07.702Z,20.50
2022-09-03T18:11:42.430Z,20.50
2022-09-03T18:14:22.646Z,20.50
2022-09-03T18:17:39.986Z,20.60
2022-09-03T18:20:30.650Z,20.60
2022-09-03T18:23:24.010Z,20.60
2022-09-03T18:26:15.438Z,20.60
2022-09-03T18:29:07.714Z,20.50
2022-09-03T18:31:54.595Z,20.50
2022-09-03T18:34:49.348Z,20.50
2022-09-03T18:37:44.391Z,20.50
2022-09-03T18:41:02.132Z,20.50
2022-09-03T18:43:51.045Z,20.60
2022-09-03T18:48:00.919Z,20.60
2022-09-03T18:50:09.028Z,20.60
2022-09-03T18:53:26.584Z,20.60
2022-09-03T18:56:28.298Z,20.60
2022-09-03T18:59:14.041Z,20.50
2022-09-03T19:02:02.887Z,20.50
2022-09-03T19:05:13.028Z,20.50
2022-09-03T19:08:20.365Z,20.50
2022-09-03T19:11:40.788Z,20.40
2022-09-03T19:14:41.580Z,20.30
2022-09-03T19:18:01.728Z,20.20
2022-09-03T19:20:52.867Z,20.20
2022-09-03T19:23:38.665Z,20.20
2022-09-03T19:27:10.518Z,20.20
2022-09-03T19:30:28.664Z,20.20
2022-09-03T19:33:19.754Z,20.30
2022-09-03T19:36:31.677Z,20.30
2022-09-03T19:39:26.150Z,20.40
2022-09-03T19:42:19.703Z,20.40
2022-09-03T19:45:20.253Z,20.40
2022-09-03T19:48:14.103Z,20.40
2022-09-03T19:51:33.623Z,20.40
2022-09-03T19:54:22.696Z,20.40
2022-09-03T19:57:09.677Z,20.40
2022-09-03T20:00:00.483Z,20.40
2022-09-03T20:02:46.306Z,20.40
2022-09-03T20:05:40.316Z,20.40
2022-09-03T20:08:26.445Z,20.40
2022-09-03T20:10:56.701Z,20.40
2022-09-03T20:13:23.676Z,20.40
2022-09-03T20:16:22.728Z,20.40
2022-09-03T20:19:11.645Z,20.40
2022-09-03T20:22:13.346Z,20.40
2022-09-03T20:24:48.808Z,20.40
2022-09-03T20:27:42.997Z,20.40
2022-09-03T20:30:09.678Z,20.40
2022-09-03T20:32:45.341Z,20.30
2022-09-03T20:35:41.802Z,20.40
2022-09-03T20:38:42.580Z,20.40
2022-09-03T20:41:47.085Z,20.40
2022-09-03T20:44:40.963Z,20.40
2022-09-03T20:47:32.655Z,20.40
2022-09-03T20:50:33.792Z,20.40
2022-09-03T20:53:21.319Z,20.30
2022-09-03T20:55:53.032Z,20.30
2022-09-03T20:58:53.778Z,20.30
2022-09-03T21:01:30.723Z,20.30
2022-09-03T21:04:22.937Z,20.30
2022-09-03T21:07:08.268Z,20.30
2022-09-03T21:10:00.201Z,20.30
2022-09-03T21:12:41.907Z,20.30
2022-09-03T21:15:24.271Z,20.30
2022-09-03T21:18:39.140Z,20.30
2022-09-03T21:21:10.308Z,20.20
2022-09-03T21:23:43.997Z,20.20
2022-09-03T21:26:14.748Z,20.20
2022-09-03T21:29:06.654Z,20.20
2022-09-03T21:31:38.753Z,20.20
2022-09-03T21:34:14.085Z,20.20
2022-09-03T21:36:43.374Z,20.20
2022-09-03T21:39:17.775Z,20.20
2022-09-03T21:41:58.042Z,20.10
2022-09-03T21:44:42.509Z,20.10
2022-09-03T21:47:18.856Z,20.00
2022-09-03T21:49:56.187Z,20.00
2022-09-03T21:52:44.502Z,20.00
2022-09-03T21:55:49.792Z,20.00
2022-09-03T21:58:34.613Z,20.10
2022-09-03T22:01:11.857Z,20.10
2022-09-03T22:03:41.319Z,20.10
2022-09-03T22:06:23.794Z,20.10
2022-09-03T22:09:23.230Z,20.10
2022-09-03T22:12:16.020Z,20.10
2022-09-03T22:14:50.957Z,20.00
2022-09-03T22:17:27.849Z,20.00
2022-09-03T22:19:54.575Z,20.00
2022-09-03T22:22:50.072Z,20.00
2022-09-03T22:25:42.056Z,20.00
2022-09-03T22:28:49.399Z,20.00
2022-09-03T22:31:39.642Z,19.90
2022-09-03T22:34:31.333Z,19.80
2022-09-03T22:37:04.176Z,19.80
2022-09-03T22:39:38.110Z,19.80
2022-09-03T22:42:23.316Z,19.80
2022-09-03T22:44:58.126Z,19.80
2022-09-03T22:48:02.566Z,19.80
2022-09-03T22:50:33.901Z,19.90
2022-09-03T22:53:21.383Z,19.90
2022-09-03T22:56:12.803Z,19.90
2022-09-03T22:59:05.488Z,19.90
2022-09-03T23:01:48.045Z,19.90
2022-09-03T23:04:42.331Z,19.90
2022-09-03T23:07:41.172Z,19.90
2022-09-03T23:10:23.095Z,19.80
2022-09-03T23:13:08.196Z,19.80
2022-09-03T23:15:38.446Z,19.80
2022-09-03T23:18:26.474Z,19.80
2022-09-03T23:21:16.300Z,19.80
2022-09-03T23:23:50.620Z,19.80
2022-09-03T23:26:29.639Z,19.70
2022-09-03T23:29:13.437Z,19.70
2022-09-03T23:31:40.317Z,19.70
2022-09-03T23:34:10.001Z,19.70
2022-09-03T23:40:24.038Z,19.70
2022-09-03T23:43:02.534Z,19.70
2022-09-03T23:45:35.137Z,19.70
2022-09-03T23:48:23.311Z,19.70
2022-09-03T23:51:10.986Z,19.70
2022-09-03T23:53:52.028Z,19.70
2022-09-03T23:56:40.153Z,19.70
2022-09-03T23:59:19.616Z,19.70
